Appleton, MN

4:11 AM CST on February 14, 2016 (GMT -0600)
Appleton Municipal | | Change Station
CLOSE
Current Station
Airport
Location: Appleton,
Elevation: 1017 ft
Nearby Weather Stations
Active Advisory: Winter Weather Advisory

Elev 1017 ft 45.23 °N, 96.00 °W | Updated 16 minutes ago

Light Snow
Light Snow
14 °F
Feels Like -1 °F
N
14
Wind Variable Wind from SSE

Today
High -- | Low -- °F
--% Chance of Precip.
Yesterday
High -- | Low -- °F
Precip. -- in
Pressure 29.99 in
Visibility 4.0 miles
Clouds Mostly Cloudy 1100 ft
Mostly Cloudy 2400 ft
Overcast 4800 ft
Windchill -1 °F
Dew Point 9 °F
Humidity 79%
Rainfall 0.00 in
Snow Depth Not available.
7:27 AM 5:49 PM
Waxing Crescent, 40% visible
METAR KAQP 140955Z AUTO 15012KT 4SM -SN BKN011 BKN024 OVC048 M10/M13 A2999 RMK AO2
Pressure 29.99 in
Visibility 4.0 miles
Clouds Mostly Cloudy 1100 ft
Mostly Cloudy 2400 ft
Overcast 4800 ft
Windchill -1 °F
Dew Point 9 °F
Humidity 79%
Rainfall 0.00 in
Snow Depth Not available.
7:27 AM 5:49 PM
Waxing Crescent, 40% visible
METAR KAQP 140955Z AUTO 15012KT 4SM -SN BKN011 BKN024 OVC048 M10/M13 A2999 RMK AO2

10-Day Weather Forecast

Almanac

Astronomy

Feb. 14, 2016 Rise Set
Actual Time
Civil Twilight
Nautical Twilight
Astronomical Twilight
Moon
Length of Visible Light
Length of Day
Tomorrow will be .
, % of the Moon is Illuminated

Today's Extremes

State Highs State Lows

Community

WunderPhotos

Upload Photos

1,892,765 photos uploaded!

WunderBlog® & News

Nearby

Air Quality

  Air Quality AQ Index Pollutant
Not available.

Snow Depth

Station Depth Elevation

Earthquake Activity

City Distance Mag. Time & Date
Minimum magnitude displayed is 2.5.

Coastal Water Temperatures

Place Temperature

Stations

Nearby Weather Stations

Station Location Temp. Windchill Dew Point Humidity Wind Precip. Elev Updated Type
                   

Watches & Warnings

Winter Weather Advisory
Issued: 3:36 AM CST Feb. 14, 2016 – National Weather Service

... Winter Weather Advisory remains in effect until noon CST
today...

A Winter Weather Advisory remains in effect until noon CST today.

* Expect periods of snow to continue... diminishing around noon.

* Additional snow accumulations of 2 or 3 inches are expected.

* Look for reduced visibilities at times.

* Plan on slippery Road conditions.

Precautionary/preparedness actions...

A Winter Weather Advisory for snow means periods of snow will
cause primarily travel difficulties. Be prepared for snow covered
roads and limited visibilities... and use caution while driving.
The latest Road conditions for the state you are calling from can
be obtained by calling 5 1 1.